createdAt,value
2016-02-10T18:06:29.628Z,23.01
2016-02-10T18:07:29.802Z,21.47
2016-02-10T18:08:29.789Z,20.9
2016-02-10T18:09:29.807Z,19.86
2016-02-10T18:10:29.795Z,20.15
2016-02-10T18:11:29.813Z,19.76
2016-02-10T18:12:29.831Z,19.76
2016-02-10T18:13:29.818Z,19.96
2016-02-10T18:14:29.820Z,19.86
2016-02-10T18:15:29.826Z,19.76
2016-02-10T18:16:29.829Z,19.67
2016-02-10T18:17:29.831Z,19.67
2016-02-10T18:18:29.850Z,19.28
2016-02-10T18:19:29.852Z,19.18
2016-02-10T18:20:29.871Z,19
2016-02-10T18:21:29.857Z,19.18
2016-02-10T18:22:29.877Z,19
2016-02-10T18:23:29.881Z,19.09
2016-02-10T18:24:29.884Z,19.48
2016-02-10T18:25:29.901Z,19
2016-02-10T18:26:29.921Z,19.09
2016-02-10T18:27:29.908Z,19.09
2016-02-10T18:28:29.912Z,19.09
2016-02-10T18:29:29.930Z,19.48
2016-02-10T18:30:29.948Z,19.58
2016-02-10T18:31:29.952Z,19.29
2016-02-10T18:32:29.955Z,19.09
2016-02-10T18:33:29.958Z,19.87
2016-02-10T18:34:29.977Z,19.38
2016-02-10T18:35:29.980Z,19.09
2016-02-10T18:36:29.983Z,19
2016-02-10T18:37:30.001Z,19
2016-02-10T18:38:30.004Z,19
2016-02-10T18:39:30.022Z,19
2016-02-10T18:40:30.025Z,19.09
2016-02-10T18:41:30.028Z,19.38
2016-02-10T18:42:30.030Z,19.48
2016-02-10T18:43:30.049Z,19.29
2016-02-10T18:44:30.067Z,19.29
2016-02-10T18:45:30.085Z,19.29
2016-02-10T18:46:30.073Z,19.38
2016-02-10T18:47:30.076Z,19.29
2016-02-10T18:48:30.093Z,19.29
2016-02-10T18:49:30.096Z,19.18
2016-02-10T18:50:30.115Z,19.09
2016-02-10T18:51:30.119Z,19.29
2016-02-10T18:52:30.136Z,18.8
2016-02-10T18:53:30.139Z,18.71
2016-02-10T18:54:30.157Z,19
2016-02-10T18:55:30.163Z,18.7
2016-02-10T18:56:30.165Z,18.8
2016-02-10T18:57:30.169Z,18.8
2016-02-10T18:58:30.188Z,18.8
2016-02-10T18:59:30.191Z,18.7
2016-02-10T19:02:57.155Z,18.99
2016-02-10T19:03:57.158Z,18.71
2016-02-10T19:04:57.175Z,18.79
2016-02-10T19:05:57.178Z,18.7
2016-02-10T19:06:57.212Z,18.89
2016-02-10T19:07:57.201Z,18.79
2016-02-10T19:08:57.204Z,19
2016-02-10T19:09:57.222Z,18.8
2016-02-10T19:10:57.224Z,18.9
2016-02-10T19:11:57.227Z,18.9
2016-02-10T19:12:57.245Z,18.51
2016-02-10T19:13:57.264Z,18.51
2016-02-10T19:14:57.267Z,18.61
2016-02-10T19:15:57.270Z,18.51
2016-02-10T19:16:57.274Z,18.71
2016-02-10T19:17:57.292Z,18.61
2016-02-10T19:18:57.295Z,18.41
2016-02-10T19:19:57.313Z,19
2016-02-10T19:20:57.316Z,18.79
2016-02-10T19:21:57.318Z,18.79
2016-02-10T19:22:57.337Z,18.6
2016-02-10T19:23:57.340Z,19
2016-02-10T19:24:57.359Z,18.79
2016-02-10T19:25:57.361Z,18.89
2016-02-10T19:26:57.367Z,18.89
2016-02-10T19:27:57.387Z,18.7
2016-02-10T19:28:57.390Z,18.7
2016-02-10T19:29:57.392Z,18.79
2016-02-10T19:35:17.250Z,19.17
2016-02-10T19:36:17.254Z,19.07
2016-02-10T19:37:17.273Z,19.07
2016-02-10T19:38:17.292Z,19.07
2016-02-10T19:39:17.279Z,19.07
2016-02-10T19:40:17.281Z,19.66
2016-02-10T19:41:17.300Z,19.56
2016-02-10T19:42:17.319Z,19.75
2016-02-10T19:43:17.321Z,19.56
2016-02-10T19:44:17.324Z,19.66
2016-02-10T19:45:17.327Z,20.03
2016-02-10T19:46:17.346Z,19.65
2016-02-10T19:47:17.364Z,19.84
2016-02-10T19:48:17.367Z,19.56
2016-02-10T19:49:17.385Z,19.84
2016-02-10T19:50:17.372Z,19.74
2016-02-10T19:51:17.391Z,20.13
2016-02-10T19:52:17.410Z,19.94
2016-02-10T19:53:17.412Z,20.03
2016-02-10T19:54:17.415Z,19.65
2016-02-10T19:55:17.417Z,19.94
2016-02-10T19:56:17.438Z,19.74
2016-02-10T19:57:17.456Z,20.03
2016-02-10T19:58:17.443Z,19.94
2016-02-10T19:59:17.461Z,19.93
2016-02-10T20:00:22.370Z,19.93
2016-02-10T20:01:17.467Z,19.94
2016-02-10T20:02:17.486Z,19.93
2016-02-10T20:03:17.489Z,19.93
2016-02-10T20:04:17.492Z,20.12
2016-02-10T20:05:17.509Z,20.12
2016-02-10T20:06:17.512Z,20.61
2016-02-10T20:07:17.530Z,20.41
2016-02-10T20:08:17.533Z,20.31
2016-02-10T20:09:17.552Z,20.21
2016-02-10T20:10:17.556Z,20.31
2016-02-10T20:11:17.559Z,20.21
2016-02-10T20:12:17.561Z,20.41
2016-02-10T20:13:17.580Z,20.31
2016-02-10T20:14:17.583Z,20.31
2016-02-10T20:15:17.586Z,20.21
2016-02-10T20:16:17.604Z,20.59
2016-02-10T20:17:17.607Z,20.21
2016-02-10T20:18:17.626Z,20.41
2016-02-10T20:19:17.629Z,20.59
2016-02-10T20:20:17.631Z,20.69
2016-02-10T20:21:17.651Z,20.4
2016-02-10T20:22:17.653Z,20.4
2016-02-10T20:23:17.656Z,20.4
2016-02-10T20:24:17.673Z,20.5
2016-02-10T20:25:17.676Z,20.4
2016-02-10T20:26:17.681Z,20.5
2016-02-10T20:27:17.684Z,20.79
2016-02-10T20:28:17.702Z,20.69
2016-02-10T20:29:17.705Z,20.69
2016-02-10T20:32:27.041Z,20.59
2016-02-10T20:33:27.060Z,20.39
2016-02-10T20:34:27.063Z,20.89
2016-02-10T20:35:27.066Z,20.68
2016-02-10T20:36:27.084Z,21.07
2016-02-10T20:37:27.102Z,20.89
2016-02-10T20:38:27.090Z,20.87
2016-02-10T20:39:27.108Z,21.08
2016-02-10T20:40:27.110Z,20.97
2016-02-10T20:41:27.129Z,20.97
2016-02-10T20:42:27.132Z,20.97
2016-02-10T20:43:27.135Z,20.78
2016-02-10T20:44:27.139Z,20.78
2016-02-10T20:45:27.156Z,20.97
2016-02-10T20:46:27.160Z,21.07
2016-02-10T20:47:27.162Z,20.97
2016-02-10T20:48:27.181Z,20.97
2016-02-10T20:49:27.184Z,21.07
2016-02-10T20:50:27.202Z,20.97
2016-02-10T20:51:27.204Z,21.17
2016-02-10T20:52:27.209Z,20.97
2016-02-10T20:53:27.227Z,20.97
2016-02-10T20:54:27.230Z,20.87
2016-02-10T20:55:27.222Z,20.97
2016-02-10T20:56:27.241Z,21.26
2016-02-10T20:57:27.243Z,20.87
2016-02-10T20:58:27.262Z,21.35
2016-02-10T20:59:27.265Z,21.44
2016-02-10T21:02:45.210Z,21.35
2016-02-10T21:03:45.213Z,21.36
2016-02-10T21:04:45.231Z,21.26
2016-02-10T21:05:45.236Z,21.35
2016-02-10T21:06:45.214Z,21.35
2016-02-10T21:07:45.206Z,21.44
2016-02-10T21:08:45.229Z,21.54
2016-02-10T21:09:45.222Z,21.15
2016-02-10T21:10:45.218Z,21.25
2016-02-10T21:11:45.219Z,21.44
2016-02-10T21:12:45.217Z,21.64
2016-02-10T21:13:45.216Z,21.64
2016-02-10T21:14:45.217Z,21.64
2016-02-10T21:15:45.248Z,21.73
2016-02-10T21:16:45.249Z,21.92
2016-02-10T21:17:45.251Z,21.64
2016-02-10T21:18:45.253Z,21.54
2016-02-10T21:19:45.254Z,21.83
2016-02-10T21:20:45.284Z,21.64
2016-02-10T21:21:45.286Z,21.64
2016-02-10T21:22:45.271Z,21.54
2016-02-10T21:23:45.289Z,21.73
2016-02-10T21:24:45.292Z,21.54
2016-02-10T21:25:45.294Z,21.44
2016-02-10T21:26:45.312Z,21.35
2016-02-10T21:27:45.316Z,21.73
2016-02-10T21:28:45.321Z,21.54
2016-02-10T21:29:45.339Z,21.44
2016-02-10T21:30:54.361Z,21.25
2016-02-10T21:31:45.361Z,21.54
2016-02-10T21:32:45.348Z,21.44
2016-02-10T21:33:45.365Z,21.44
2016-02-10T21:34:45.369Z,21.35
2016-02-10T21:35:45.387Z,21.44
2016-02-10T21:36:45.390Z,21.15
2016-02-10T21:37:45.393Z,21.06
2016-02-10T21:38:45.395Z,21.35
2016-02-10T21:39:45.414Z,21.35
2016-02-10T21:40:45.416Z,21.35
2016-02-10T21:41:45.434Z,21.35
2016-02-10T21:42:45.436Z,21.64
2016-02-10T21:43:45.440Z,21.35
2016-02-10T21:44:45.459Z,20.86
2016-02-10T21:45:45.462Z,21.35
2016-02-10T21:46:45.465Z,21.35
2016-02-10T21:47:45.467Z,21.25
2016-02-10T21:48:45.470Z,21.73
2016-02-10T21:49:45.487Z,21.25
2016-02-10T21:50:46.070Z,21.25
2016-02-10T21:51:45.509Z,21.64
2016-02-10T21:52:45.496Z,21.54
2016-02-10T21:53:45.516Z,21.06
2016-02-10T21:54:45.518Z,21.15
2016-02-10T21:55:45.537Z,20.96
2016-02-10T21:56:45.527Z,21.54
2016-02-10T21:57:45.546Z,21.15
2016-02-10T21:58:45.563Z,20.77
2016-02-10T21:59:45.552Z,21.25
2016-02-10T22:00:45.569Z,20.96
2016-02-10T22:01:45.572Z,20.96
2016-02-10T22:02:45.576Z,20.96
2016-02-10T22:03:45.578Z,21.06
2016-02-10T22:04:45.598Z,20.86
2016-02-10T22:05:45.600Z,21.15
2016-02-10T22:06:45.603Z,20.77
2016-02-10T22:07:45.621Z,20.77
2016-02-10T22:08:45.624Z,20.77
2016-02-10T22:09:45.626Z,21.06
2016-02-10T22:10:45.631Z,21.06
2016-02-10T22:11:45.650Z,20.96
2016-02-10T22:12:45.669Z,20.86
2016-02-10T22:13:45.657Z,20.86
2016-02-10T22:14:45.660Z,20.96
2016-02-10T22:15:45.679Z,20.77
2016-02-10T22:16:45.681Z,20.77
2016-02-10T22:17:45.730Z,20.86
2016-02-10T22:18:45.696Z,21.06
2016-02-10T22:19:45.700Z,20.96
2016-02-10T22:20:45.703Z,20.77
2016-02-10T22:21:45.705Z,20.96
2016-02-10T22:22:45.724Z,20.96
2016-02-10T22:23:45.727Z,20.86
2016-02-10T22:24:45.746Z,20.96
2016-02-10T22:25:45.748Z,21.15
2016-02-10T22:26:45.751Z,21.06
2016-02-10T22:27:45.754Z,20.77
2016-02-10T22:28:45.771Z,20.77
2016-02-10T22:29:45.774Z,20.96
2016-02-10T22:30:45.777Z,20.96
2016-02-10T22:31:45.797Z,21.06
2016-02-10T22:32:45.800Z,21.06
2016-02-10T22:33:45.802Z,20.86
2016-02-10T22:34:45.805Z,20.96
2016-02-10T22:35:45.822Z,20.96
2016-02-10T22:36:45.841Z,20.96
2016-02-10T22:37:45.843Z,21.06
2016-02-10T22:38:45.832Z,20.77
2016-02-10T22:39:45.850Z,21.06
2016-02-10T22:40:45.853Z,20.96
2016-02-10T22:41:45.855Z,21.06
2016-02-10T22:42:45.874Z,20.96
2016-02-10T22:43:45.892Z,20.96
2016-02-10T22:44:45.880Z,20.96
2016-02-10T22:45:45.882Z,20.86
2016-02-10T22:46:45.900Z,20.96
2016-02-10T22:47:45.904Z,20.96
2016-02-10T22:48:45.922Z,20.86
2016-02-10T22:49:45.909Z,21.04
2016-02-10T22:50:45.942Z,20.96
2016-02-10T22:51:45.931Z,20.86
2016-02-10T22:52:45.948Z,20.77
2016-02-10T22:53:45.951Z,20.86
2016-02-10T22:54:45.970Z,20.76
2016-02-10T22:55:45.959Z,20.77
2016-02-10T22:56:45.978Z,20.96
2016-02-10T22:57:45.980Z,20.96
2016-02-10T22:58:46.001Z,20.77
2016-02-10T22:59:46.003Z,20.77
2016-02-10T23:05:10.785Z,20.96
2016-02-10T23:06:10.788Z,20.96
2016-02-10T23:07:10.791Z,20.96
2016-02-10T23:08:10.794Z,20.96
2016-02-10T23:09:10.812Z,20.86
2016-02-10T23:10:10.830Z,21.06
2016-02-10T23:11:10.818Z,20.96
2016-02-10T23:12:10.836Z,20.95
2016-02-10T23:13:10.840Z,20.76
2016-02-10T23:14:10.843Z,21.53
2016-02-10T23:15:10.863Z,21.24
2016-02-10T23:16:10.865Z,21.34
2016-02-10T23:17:10.868Z,21.53
2016-02-10T23:18:10.887Z,21.15
2016-02-10T23:19:10.874Z,21.14
2016-02-10T23:20:10.892Z,20.86
2016-02-10T23:21:10.895Z,20.96
2016-02-10T23:22:10.897Z,20.86
2016-02-10T23:23:10.916Z,20.96
2016-02-10T23:24:10.919Z,21.06
2016-02-10T23:25:10.920Z,21.06
2016-02-10T23:26:10.923Z,21.06
2016-02-10T23:27:10.941Z,20.96
2016-02-10T23:28:10.944Z,20.86
2016-02-10T23:29:10.946Z,20.86
2016-02-10T23:33:31.645Z,20.96
2016-02-10T23:34:00.211Z,20.96
2016-02-10T23:35:00.245Z,20.96
2016-02-10T23:36:00.247Z,20.96
2016-02-10T23:37:00.250Z,20.96
2016-02-10T23:38:00.253Z,21.06
2016-02-10T23:39:00.271Z,20.86
2016-02-10T23:40:00.274Z,20.96
2016-02-10T23:41:00.278Z,20.86
2016-02-10T23:42:00.295Z,20.86
2016-02-10T23:43:00.298Z,20.67
2016-02-10T23:44:00.301Z,21.25
2016-02-10T23:45:00.304Z,21.25
2016-02-10T23:46:00.323Z,21.25
2016-02-10T23:47:00.325Z,20.67
2016-02-10T23:48:00.328Z,20.86
2016-02-10T23:49:00.333Z,21.06
2016-02-10T23:50:00.336Z,20.95
2016-02-10T23:51:00.369Z,21.06
2016-02-10T23:52:00.358Z,20.86
2016-02-10T23:53:00.376Z,20.77
2016-02-10T23:54:00.363Z,20.86
2016-02-10T23:55:00.380Z,21.06
2016-02-10T23:56:00.385Z,20.86
2016-02-10T23:57:00.403Z,21.06
2016-02-10T23:58:00.407Z,20.96
2016-02-10T23:59:00.409Z,20.96
